sensor_id;sensor_type;location;lat;lon;timestamp;P1;durP1;ratioP1;P2;durP2;ratioP2
56239;SDS011;42154;51.992;5.896;2022-12-07T09:07:03;12.75;;;4.80;;
56239;SDS011;42154;51.992;5.896;2022-12-07T09:09:29;8.00;;;4.45;;
56239;SDS011;42154;51.992;5.896;2022-12-07T09:11:55;13.82;;;5.32;;
56239;SDS011;42154;51.992;5.896;2022-12-07T09:14:20;9.82;;;5.03;;
56239;SDS011;42154;51.992;5.896;2022-12-07T09:16:46;14.35;;;5.57;;
56239;SDS011;42154;51.992;5.896;2022-12-07T09:19:12;9.52;;;5.18;;
56239;SDS011;42154;51.992;5.896;2022-12-07T09:21:38;10.82;;;4.90;;
56239;SDS011;42154;51.992;5.896;2022-12-07T09:24:03;12.32;;;5.75;;
56239;SDS011;42154;51.992;5.896;2022-12-07T09:26:29;10.07;;;4.78;;
56239;SDS011;42154;51.992;5.896;2022-12-07T09:28:55;10.48;;;4.85;;
56239;SDS011;42154;51.992;5.896;2022-12-07T09:31:21;9.55;;;4.88;;
56239;SDS011;42154;51.992;5.896;2022-12-07T09:33:46;8.07;;;4.38;;
56239;SDS011;42154;51.992;5.896;2022-12-07T09:36:17;8.65;;;3.65;;
56239;SDS011;42154;51.992;5.896;2022-12-07T09:38:43;9.27;;;4.28;;
56239;SDS011;42154;51.992;5.896;2022-12-07T09:41:08;10.40;;;4.15;;
56239;SDS011;42154;51.992;5.896;2022-12-07T09:43:35;13.00;;;3.72;;
56239;SDS011;42154;51.992;5.896;2022-12-07T09:46:04;11.18;;;3.80;;
56239;SDS011;42154;51.992;5.896;2022-12-07T09:48:31;10.07;;;3.10;;
56239;SDS011;42154;51.992;5.896;2022-12-07T09:51:00;10.65;;;3.78;;
56239;SDS011;42154;51.992;5.896;2022-12-07T09:53:29;8.55;;;3.53;;
56239;SDS011;42154;51.992;5.896;2022-12-07T09:58:26;11.68;;;3.80;;
56239;SDS011;42154;51.992;5.896;2022-12-07T10:00:55;7.80;;;3.50;;
56239;SDS011;42154;51.992;5.896;2022-12-07T10:03:23;8.93;;;3.55;;
56239;SDS011;42154;51.992;5.896;2022-12-07T10:05:51;8.30;;;3.30;;
56239;SDS011;42154;51.992;5.896;2022-12-07T10:08:18;6.95;;;3.25;;
56239;SDS011;42154;51.992;5.896;2022-12-07T10:10:45;7.35;;;3.10;;
56239;SDS011;42154;51.992;5.896;2022-12-07T10:13:17;7.00;;;3.10;;
56239;SDS011;42154;51.992;5.896;2022-12-07T10:15:55;9.65;;;3.50;;
56239;SDS011;42154;51.992;5.896;2022-12-07T10:18:27;7.53;;;3.17;;
56239;SDS011;42154;51.992;5.896;2022-12-07T10:23:43;8.10;;;2.72;;
56239;SDS011;42154;51.992;5.896;2022-12-07T10:26:35;9.00;;;3.00;;
56239;SDS011;42154;51.992;5.896;2022-12-07T10:29:20;9.00;;;3.47;;
56239;SDS011;42154;51.992;5.896;2022-12-07T10:31:55;6.55;;;2.70;;
56239;SDS011;42154;51.992;5.896;2022-12-07T10:34:34;11.32;;;2.78;;
56239;SDS011;42154;51.992;5.896;2022-12-07T10:42:09;7.18;;;2.33;;
56239;SDS011;42154;51.992;5.896;2022-12-07T10:44:40;5.60;;;2.38;;
56239;SDS011;42154;51.992;5.896;2022-12-07T10:52:45;7.30;;;2.00;;
56239;SDS011;42154;51.992;5.896;2022-12-07T11:01:09;5.63;;;1.95;;
56239;SDS011;42154;51.992;5.896;2022-12-07T11:18:10;5.72;;;1.70;;
56239;SDS011;42154;51.992;5.896;2022-12-07T11:23:21;7.13;;;2.08;;
56239;SDS011;42154;51.992;5.896;2022-12-07T11:26:05;4.55;;;1.70;;
56239;SDS011;42154;51.992;5.896;2022-12-07T11:28:50;5.57;;;1.60;;
56239;SDS011;42154;51.992;5.896;2022-12-07T11:31:47;7.40;;;1.85;;
56239;SDS011;42154;51.992;5.896;2022-12-07T11:36:59;6.82;;;1.85;;
56239;SDS011;42154;51.992;5.896;2022-12-07T11:42:01;4.00;;;1.70;;
56239;SDS011;42154;51.992;5.896;2022-12-07T11:52:51;5.03;;;1.40;;
56239;SDS011;42154;51.992;5.896;2022-12-07T11:55:27;6.00;;;1.80;;
56239;SDS011;42154;51.992;5.896;2022-12-07T11:58:04;7.43;;;2.63;;
56239;SDS011;42154;51.992;5.896;2022-12-07T12:01:03;5.90;;;1.30;;
56239;SDS011;42154;51.992;5.896;2022-12-07T12:03:45;7.18;;;1.63;;
56239;SDS011;42154;51.992;5.896;2022-12-07T12:06:13;5.43;;;1.60;;
56239;SDS011;42154;51.992;5.896;2022-12-07T12:08:40;5.72;;;1.73;;
56239;SDS011;42154;51.992;5.896;2022-12-07T12:13:59;4.57;;;1.42;;
56239;SDS011;42154;51.992;5.896;2022-12-07T12:21:48;4.80;;;1.30;;
56239;SDS011;42154;51.992;5.896;2022-12-07T12:24:22;6.63;;;1.98;;
56239;SDS011;42154;51.992;5.896;2022-12-07T12:26:52;5.40;;;1.52;;
56239;SDS011;42154;51.992;5.896;2022-12-07T12:29:34;6.13;;;1.77;;
56239;SDS011;42154;51.992;5.896;2022-12-07T12:32:04;3.05;;;1.42;;
56239;SDS011;42154;51.992;5.896;2022-12-07T12:42:48;6.30;;;1.38;;
56239;SDS011;42154;51.992;5.896;2022-12-07T12:45:25;6.05;;;1.60;;
56239;SDS011;42154;51.992;5.896;2022-12-07T12:47:54;8.07;;;1.70;;
56239;SDS011;42154;51.992;5.896;2022-12-07T12:50:50;6.05;;;1.35;;
56239;SDS011;42154;51.992;5.896;2022-12-07T12:54:02;5.90;;;1.52;;
56239;SDS011;42154;51.992;5.896;2022-12-07T12:56:39;6.57;;;1.48;;
56239;SDS011;42154;51.992;5.896;2022-12-07T13:01:48;4.93;;;1.38;;
56239;SDS011;42154;51.992;5.896;2022-12-07T13:04:49;8.27;;;1.75;;
56239;SDS011;42154;51.992;5.896;2022-12-07T13:12:56;6.22;;;1.25;;
56239;SDS011;42154;51.992;5.896;2022-12-07T13:15:41;4.90;;;1.48;;
56239;SDS011;42154;51.992;5.896;2022-12-07T13:20:57;5.78;;;1.80;;
56239;SDS011;42154;51.992;5.896;2022-12-07T13:23:24;5.38;;;1.33;;
56239;SDS011;42154;51.992;5.896;2022-12-07T13:26:12;4.05;;;1.55;;
56239;SDS011;42154;51.992;5.896;2022-12-07T13:34:04;6.68;;;1.45;;
56239;SDS011;42154;51.992;5.896;2022-12-07T13:36:50;6.05;;;1.48;;
56239;SDS011;42154;51.992;5.896;2022-12-07T13:39:20;6.68;;;1.63;;
56239;SDS011;42154;51.992;5.896;2022-12-07T13:41:49;5.43;;;1.52;;
56239;SDS011;42154;51.992;5.896;2022-12-07T13:44:17;5.60;;;1.55;;
56239;SDS011;42154;51.992;5.896;2022-12-07T13:46:46;6.32;;;1.38;;
56239;SDS011;42154;51.992;5.896;2022-12-07T13:49:41;3.55;;;1.40;;
56239;SDS011;42154;51.992;5.896;2022-12-07T13:52:24;4.32;;;1.05;;
56239;SDS011;42154;51.992;5.896;2022-12-07T13:57:29;9.30;;;1.95;;
56239;SDS011;42154;51.992;5.896;2022-12-07T13:59:59;6.32;;;1.20;;
56239;SDS011;42154;51.992;5.896;2022-12-07T14:10:24;6.63;;;1.17;;
56239;SDS011;42154;51.992;5.896;2022-12-07T14:12:51;3.88;;;1.00;;
56239;SDS011;42154;51.992;5.896;2022-12-07T14:15:21;2.47;;;0.80;;
56239;SDS011;42154;51.992;5.896;2022-12-07T14:17:49;6.53;;;1.02;;
56239;SDS011;42154;51.992;5.896;2022-12-07T14:20:33;6.00;;;0.90;;
56239;SDS011;42154;51.992;5.896;2022-12-07T14:23:01;4.70;;;1.02;;
56239;SDS011;42154;51.992;5.896;2022-12-07T14:25:47;5.57;;;1.23;;
56239;SDS011;42154;51.992;5.896;2022-12-07T14:28:31;3.00;;;1.00;;
56239;SDS011;42154;51.992;5.896;2022-12-07T14:30:59;3.70;;;1.23;;
56239;SDS011;42154;51.992;5.896;2022-12-07T14:33:25;6.43;;;1.42;;
56239;SDS011;42154;51.992;5.896;2022-12-07T14:35:52;5.70;;;1.10;;
56239;SDS011;42154;51.992;5.896;2022-12-07T14:38:24;2.83;;;0.93;;
56239;SDS011;42154;51.992;5.896;2022-12-07T14:40:51;6.53;;;1.20;;
56239;SDS011;42154;51.992;5.896;2022-12-07T14:43:18;4.72;;;1.00;;
56239;SDS011;42154;51.992;5.896;2022-12-07T14:45:45;5.07;;;1.20;;
56239;SDS011;42154;51.992;5.896;2022-12-07T14:48:12;3.40;;;1.05;;
56239;SDS011;42154;51.992;5.896;2022-12-07T14:50:41;4.93;;;1.10;;
56239;SDS011;42154;51.992;5.896;2022-12-07T14:53:14;4.40;;;1.20;;
56239;SDS011;42154;51.992;5.896;2022-12-07T14:55:42;2.88;;;1.23;;
56239;SDS011;42154;51.992;5.896;2022-12-07T14:58:14;4.15;;;1.00;;
56239;SDS011;42154;51.992;5.896;2022-12-07T15:00:41;2.83;;;1.13;;
56239;SDS011;42154;51.992;5.896;2022-12-07T15:03:07;4.68;;;1.55;;
56239;SDS011;42154;51.992;5.896;2022-12-07T15:05:32;4.82;;;1.60;;
56239;SDS011;42154;51.992;5.896;2022-12-07T15:07:59;5.35;;;2.10;;
56239;SDS011;42154;51.992;5.896;2022-12-07T15:10:26;5.22;;;2.00;;
56239;SDS011;42154;51.992;5.896;2022-12-07T15:13:02;5.25;;;1.60;;
56239;SDS011;42154;51.992;5.896;2022-12-07T15:15:47;6.22;;;1.60;;
56239;SDS011;42154;51.992;5.896;2022-12-07T15:18:14;3.88;;;1.80;;
56239;SDS011;42154;51.992;5.896;2022-12-07T15:20:41;4.30;;;1.20;;
56239;SDS011;42154;51.992;5.896;2022-12-07T15:23:07;6.68;;;1.42;;
56239;SDS011;42154;51.992;5.896;2022-12-07T15:25:33;2.92;;;1.27;;
56239;SDS011;42154;51.992;5.896;2022-12-07T15:27:58;4.25;;;1.05;;
56239;SDS011;42154;51.992;5.896;2022-12-07T15:30:24;3.40;;;1.30;;
56239;SDS011;42154;51.992;5.896;2022-12-07T15:32:50;4.93;;;1.48;;
56239;SDS011;42154;51.992;5.896;2022-12-07T15:35:16;4.25;;;1.40;;
56239;SDS011;42154;51.992;5.896;2022-12-07T15:37:42;5.03;;;1.70;;
56239;SDS011;42154;51.992;5.896;2022-12-07T15:40:08;4.05;;;1.90;;
56239;SDS011;42154;51.992;5.896;2022-12-07T15:42:35;5.22;;;2.22;;
56239;SDS011;42154;51.992;5.896;2022-12-07T15:45:02;6.10;;;1.60;;
56239;SDS011;42154;51.992;5.896;2022-12-07T15:47:31;5.95;;;2.10;;
56239;SDS011;42154;51.992;5.896;2022-12-07T15:50:01;5.30;;;2.10;;
56239;SDS011;42154;51.992;5.896;2022-12-07T15:52:31;3.80;;;1.97;;
56239;SDS011;42154;51.992;5.896;2022-12-07T15:54:57;5.18;;;2.08;;
56239;SDS011;42154;51.992;5.896;2022-12-07T15:57:25;5.38;;;1.70;;
56239;SDS011;42154;51.992;5.896;2022-12-07T15:59:51;4.63;;;2.38;;
56239;SDS011;42154;51.992;5.896;2022-12-07T16:02:17;4.00;;;1.83;;
56239;SDS011;42154;51.992;5.896;2022-12-07T16:04:43;4.85;;;2.50;;
56239;SDS011;42154;51.992;5.896;2022-12-07T16:07:09;5.10;;;3.20;;
56239;SDS011;42154;51.992;5.896;2022-12-07T16:09:36;9.40;;;4.20;;
56239;SDS011;42154;51.992;5.896;2022-12-07T16:12:03;5.15;;;3.97;;
56239;SDS011;42154;51.992;5.896;2022-12-07T16:14:29;6.88;;;4.47;;
56239;SDS011;42154;51.992;5.896;2022-12-07T16:16:57;9.02;;;4.45;;
56239;SDS011;42154;51.992;5.896;2022-12-07T16:19:22;7.20;;;4.50;;
56239;SDS011;42154;51.992;5.896;2022-12-07T16:21:48;8.38;;;3.33;;
56239;SDS011;42154;51.992;5.896;2022-12-07T16:24:14;5.53;;;3.08;;
56239;SDS011;42154;51.992;5.896;2022-12-07T16:26:40;5.55;;;2.58;;
56239;SDS011;42154;51.992;5.896;2022-12-07T16:29:06;5.13;;;2.28;;
56239;SDS011;42154;51.992;5.896;2022-12-07T16:31:31;5.63;;;2.45;;
56239;SDS011;42154;51.992;5.896;2022-12-07T16:33:57;6.90;;;2.72;;
56239;SDS011;42154;51.992;5.896;2022-12-07T16:36:24;5.82;;;2.15;;
56239;SDS011;42154;51.992;5.896;2022-12-07T16:38:52;6.32;;;2.25;;
56239;SDS011;42154;51.992;5.896;2022-12-07T16:41:18;8.15;;;2.20;;
56239;SDS011;42154;51.992;5.896;2022-12-07T16:43:43;5.43;;;1.88;;
56239;SDS011;42154;51.992;5.896;2022-12-07T16:46:09;5.53;;;2.10;;
56239;SDS011;42154;51.992;5.896;2022-12-07T16:48:38;5.10;;;1.80;;
56239;SDS011;42154;51.992;5.896;2022-12-07T16:51:05;7.18;;;2.15;;
56239;SDS011;42154;51.992;5.896;2022-12-07T16:53:33;6.45;;;2.50;;
56239;SDS011;42154;51.992;5.896;2022-12-07T16:56:00;3.72;;;1.98;;
56239;SDS011;42154;51.992;5.896;2022-12-07T16:58:28;7.32;;;2.67;;
56239;SDS011;42154;51.992;5.896;2022-12-07T17:00:54;5.60;;;1.98;;
56239;SDS011;42154;51.992;5.896;2022-12-07T17:03:20;4.22;;;1.83;;
56239;SDS011;42154;51.992;5.896;2022-12-07T17:05:46;6.63;;;2.45;;
56239;SDS011;42154;51.992;5.896;2022-12-07T17:08:12;3.03;;;1.70;;
56239;SDS011;42154;51.992;5.896;2022-12-07T17:10:39;3.72;;;1.83;;
56239;SDS011;42154;51.992;5.896;2022-12-07T17:13:06;4.53;;;1.95;;
56239;SDS011;42154;51.992;5.896;2022-12-07T17:15:56;2.97;;;1.80;;
56239;SDS011;42154;51.992;5.896;2022-12-07T17:18:30;4.20;;;1.98;;
56239;SDS011;42154;51.992;5.896;2022-12-07T17:21:01;3.55;;;2.03;;
56239;SDS011;42154;51.992;5.896;2022-12-07T17:23:31;4.47;;;2.47;;
56239;SDS011;42154;51.992;5.896;2022-12-07T17:28:34;5.18;;;2.92;;
56239;SDS011;42154;51.992;5.896;2022-12-07T17:31:00;4.43;;;2.40;;
56239;SDS011;42154;51.992;5.896;2022-12-07T17:33:29;4.22;;;2.72;;
56239;SDS011;42154;51.992;5.896;2022-12-07T17:35:56;4.25;;;2.80;;
56239;SDS011;42154;51.992;5.896;2022-12-07T17:38:21;6.07;;;3.30;;
56239;SDS011;42154;51.992;5.896;2022-12-07T17:40:47;4.55;;;2.63;;
56239;SDS011;42154;51.992;5.896;2022-12-07T17:43:13;5.78;;;3.42;;
56239;SDS011;42154;51.992;5.896;2022-12-07T17:45:38;6.68;;;3.70;;
56239;SDS011;42154;51.992;5.896;2022-12-07T17:48:04;5.63;;;3.80;;
56239;SDS011;42154;51.992;5.896;2022-12-07T17:50:30;7.20;;;3.72;;
56239;SDS011;42154;51.992;5.896;2022-12-07T17:53:14;5.55;;;3.60;;
56239;SDS011;42154;51.992;5.896;2022-12-07T17:55:40;4.80;;;3.13;;
56239;SDS011;42154;51.992;5.896;2022-12-07T17:58:06;7.68;;;3.80;;
56239;SDS011;42154;51.992;5.896;2022-12-07T18:00:32;8.73;;;3.90;;
56239;SDS011;42154;51.992;5.896;2022-12-07T18:03:05;5.80;;;3.85;;
56239;SDS011;42154;51.992;5.896;2022-12-07T18:05:36;7.75;;;3.95;;
56239;SDS011;42154;51.992;5.896;2022-12-07T18:08:03;7.82;;;4.60;;
56239;SDS011;42154;51.992;5.896;2022-12-07T18:10:30;7.63;;;5.32;;
56239;SDS011;42154;51.992;5.896;2022-12-07T18:12:56;8.38;;;5.38;;
56239;SDS011;42154;51.992;5.896;2022-12-07T18:15:41;8.82;;;4.88;;
56239;SDS011;42154;51.992;5.896;2022-12-07T18:18:07;8.02;;;5.43;;
56239;SDS011;42154;51.992;5.896;2022-12-07T18:20:33;10.80;;;6.32;;
56239;SDS011;42154;51.992;5.896;2022-12-07T18:22:59;9.38;;;6.03;;
56239;SDS011;42154;51.992;5.896;2022-12-07T18:25:25;9.38;;;5.50;;
56239;SDS011;42154;51.992;5.896;2022-12-07T18:27:51;9.35;;;5.07;;
56239;SDS011;42154;51.992;5.896;2022-12-07T18:30:16;8.85;;;5.28;;
56239;SDS011;42154;51.992;5.896;2022-12-07T18:32:42;10.70;;;4.75;;
56239;SDS011;42154;51.992;5.896;2022-12-07T18:35:08;6.25;;;4.13;;
56239;SDS011;42154;51.992;5.896;2022-12-07T18:37:34;8.00;;;5.13;;
56239;SDS011;42154;51.992;5.896;2022-12-07T18:39:59;11.90;;;4.93;;
56239;SDS011;42154;51.992;5.896;2022-12-07T18:42:25;7.75;;;4.20;;
56239;SDS011;42154;51.992;5.896;2022-12-07T18:44:51;8.10;;;4.03;;
56239;SDS011;42154;51.992;5.896;2022-12-07T18:47:16;8.73;;;4.72;;
56239;SDS011;42154;51.992;5.896;2022-12-07T18:49:42;10.30;;;4.60;;
56239;SDS011;42154;51.992;5.896;2022-12-07T18:52:08;8.48;;;3.95;;
56239;SDS011;42154;51.992;5.896;2022-12-07T18:54:33;9.38;;;4.40;;
56239;SDS011;42154;51.992;5.896;2022-12-07T18:56:59;8.90;;;4.47;;
56239;SDS011;42154;51.992;5.896;2022-12-07T18:59:25;5.18;;;3.75;;
56239;SDS011;42154;51.992;5.896;2022-12-07T19:02:09;8.20;;;3.75;;
56239;SDS011;42154;51.992;5.896;2022-12-07T19:04:36;6.10;;;3.55;;
56239;SDS011;42154;51.992;5.896;2022-12-07T19:07:01;6.88;;;3.70;;
56239;SDS011;42154;51.992;5.896;2022-12-07T19:09:27;6.68;;;3.60;;
56239;SDS011;42154;51.992;5.896;2022-12-07T19:11:53;8.63;;;3.85;;
56239;SDS011;42154;51.992;5.896;2022-12-07T19:16:55;5.00;;;3.58;;
56239;SDS011;42154;51.992;5.896;2022-12-07T19:19:24;6.60;;;3.58;;
56239;SDS011;42154;51.992;5.896;2022-12-07T19:21:55;3.92;;;3.15;;
56239;SDS011;42154;51.992;5.896;2022-12-07T19:24:21;5.22;;;3.53;;
56239;SDS011;42154;51.992;5.896;2022-12-07T19:26:46;6.38;;;3.08;;
56239;SDS011;42154;51.992;5.896;2022-12-07T19:29:12;6.07;;;3.20;;
56239;SDS011;42154;51.992;5.896;2022-12-07T19:31:38;6.28;;;3.25;;
56239;SDS011;42154;51.992;5.896;2022-12-07T19:34:08;7.22;;;3.70;;
56239;SDS011;42154;51.992;5.896;2022-12-07T19:36:34;5.53;;;3.28;;
56239;SDS011;42154;51.992;5.896;2022-12-07T19:39:00;7.72;;;3.50;;
56239;SDS011;42154;51.992;5.896;2022-12-07T19:41:26;5.53;;;3.67;;
56239;SDS011;42154;51.992;5.896;2022-12-07T19:44:02;7.15;;;3.72;;
56239;SDS011;42154;51.992;5.896;2022-12-07T19:46:33;8.05;;;5.35;;
56239;SDS011;42154;51.992;5.896;2022-12-07T19:48:59;9.05;;;4.90;;
56239;SDS011;42154;51.992;5.896;2022-12-07T19:51:25;6.80;;;4.95;;
56239;SDS011;42154;51.992;5.896;2022-12-07T19:53:52;8.70;;;5.95;;
56239;SDS011;42154;51.992;5.896;2022-12-07T19:56:20;7.28;;;5.15;;
56239;SDS011;42154;51.992;5.896;2022-12-07T19:58:46;11.27;;;5.43;;
56239;SDS011;42154;51.992;5.896;2022-12-07T20:01:12;8.73;;;5.80;;
56239;SDS011;42154;51.992;5.896;2022-12-07T20:03:39;9.85;;;5.82;;
56239;SDS011;42154;51.992;5.896;2022-12-07T20:06:12;8.05;;;4.70;;
56239;SDS011;42154;51.992;5.896;2022-12-07T20:08:40;9.20;;;5.13;;
56239;SDS011;42154;51.992;5.896;2022-12-07T20:11:07;7.43;;;4.57;;
56239;SDS011;42154;51.992;5.896;2022-12-07T20:13:52;9.48;;;4.40;;
56239;SDS011;42154;51.992;5.896;2022-12-07T20:16:19;7.28;;;4.45;;
56239;SDS011;42154;51.992;5.896;2022-12-07T20:18:45;5.18;;;3.63;;
56239;SDS011;42154;51.992;5.896;2022-12-07T20:21:11;8.00;;;3.72;;
56239;SDS011;42154;51.992;5.896;2022-12-07T20:23:37;7.75;;;3.80;;
56239;SDS011;42154;51.992;5.896;2022-12-07T20:26:04;6.82;;;4.45;;
56239;SDS011;42154;51.992;5.896;2022-12-07T20:28:32;5.38;;;3.65;;
56239;SDS011;42154;51.992;5.896;2022-12-07T20:30:58;7.15;;;3.67;;
56239;SDS011;42154;51.992;5.896;2022-12-07T20:33:24;9.95;;;4.88;;
56239;SDS011;42154;51.992;5.896;2022-12-07T20:35:50;6.32;;;4.45;;
56239;SDS011;42154;51.992;5.896;2022-12-07T20:38:16;6.78;;;4.45;;
56239;SDS011;42154;51.992;5.896;2022-12-07T20:40:46;7.85;;;4.75;;
56239;SDS011;42154;51.992;5.896;2022-12-07T20:43:13;7.53;;;5.07;;
56239;SDS011;42154;51.992;5.896;2022-12-07T20:45:45;7.00;;;4.70;;
56239;SDS011;42154;51.992;5.896;2022-12-07T20:48:12;6.78;;;4.75;;
56239;SDS011;42154;51.992;5.896;2022-12-07T20:50:38;7.63;;;5.95;;
56239;SDS011;42154;51.992;5.896;2022-12-07T20:53:04;7.13;;;5.43;;
56239;SDS011;42154;51.992;5.896;2022-12-07T20:55:29;12.88;;;6.78;;
56239;SDS011;42154;51.992;5.896;2022-12-07T20:57:55;12.45;;;6.82;;
56239;SDS011;42154;51.992;5.896;2022-12-07T21:00:21;14.77;;;7.82;;
56239;SDS011;42154;51.992;5.896;2022-12-07T21:02:47;9.73;;;7.45;;
56239;SDS011;42154;51.992;5.896;2022-12-07T21:05:12;11.80;;;8.77;;
56239;SDS011;42154;51.992;5.896;2022-12-07T21:07:38;13.63;;;8.07;;
56239;SDS011;42154;51.992;5.896;2022-12-07T21:10:04;15.07;;;8.95;;
56239;SDS011;42154;51.992;5.896;2022-12-07T21:12:31;14.82;;;8.05;;
56239;SDS011;42154;51.992;5.896;2022-12-07T21:14:57;8.85;;;6.82;;
56239;SDS011;42154;51.992;5.896;2022-12-07T21:17:22;11.93;;;8.50;;
56239;SDS011;42154;51.992;5.896;2022-12-07T21:19:50;12.02;;;8.35;;
56239;SDS011;42154;51.992;5.896;2022-12-07T21:22:16;10.70;;;7.60;;
56239;SDS011;42154;51.992;5.896;2022-12-07T21:24:42;10.95;;;7.70;;
56239;SDS011;42154;51.992;5.896;2022-12-07T21:27:08;12.02;;;7.85;;
56239;SDS011;42154;51.992;5.896;2022-12-07T21:29:34;11.85;;;7.70;;
56239;SDS011;42154;51.992;5.896;2022-12-07T21:32:00;12.40;;;7.70;;
56239;SDS011;42154;51.992;5.896;2022-12-07T21:34:26;9.68;;;7.25;;
56239;SDS011;42154;51.992;5.896;2022-12-07T21:36:52;12.73;;;7.32;;
56239;SDS011;42154;51.992;5.896;2022-12-07T21:39:18;8.95;;;6.97;;
56239;SDS011;42154;51.992;5.896;2022-12-07T21:41:43;9.68;;;7.22;;
56239;SDS011;42154;51.992;5.896;2022-12-07T21:44:09;13.05;;;7.70;;
56239;SDS011;42154;51.992;5.896;2022-12-07T21:46:35;11.77;;;7.13;;
56239;SDS011;42154;51.992;5.896;2022-12-07T21:49:03;10.23;;;6.57;;
56239;SDS011;42154;51.992;5.896;2022-12-07T21:51:30;11.68;;;7.35;;
56239;SDS011;42154;51.992;5.896;2022-12-07T21:53:57;11.43;;;7.28;;
56239;SDS011;42154;51.992;5.896;2022-12-07T21:58:57;8.27;;;5.50;;
56239;SDS011;42154;51.992;5.896;2022-12-07T22:01:25;6.03;;;4.13;;
56239;SDS011;42154;51.992;5.896;2022-12-07T22:03:52;12.90;;;8.02;;
56239;SDS011;42154;51.992;5.896;2022-12-07T22:06:19;11.05;;;6.68;;
56239;SDS011;42154;51.992;5.896;2022-12-07T22:08:47;13.00;;;7.32;;
56239;SDS011;42154;51.992;5.896;2022-12-07T22:11:13;12.68;;;6.90;;
56239;SDS011;42154;51.992;5.896;2022-12-07T22:13:40;12.55;;;7.20;;
56239;SDS011;42154;51.992;5.896;2022-12-07T22:16:26;12.30;;;6.55;;
56239;SDS011;42154;51.992;5.896;2022-12-07T22:18:52;13.63;;;7.30;;
56239;SDS011;42154;51.992;5.896;2022-12-07T22:21:18;12.15;;;6.60;;
56239;SDS011;42154;51.992;5.896;2022-12-07T22:23:44;10.90;;;7.68;;
56239;SDS011;42154;51.992;5.896;2022-12-07T22:26:12;10.50;;;6.88;;
56239;SDS011;42154;51.992;5.896;2022-12-07T22:28:39;9.32;;;6.65;;
56239;SDS011;42154;51.992;5.896;2022-12-07T22:31:06;8.77;;;6.10;;
56239;SDS011;42154;51.992;5.896;2022-12-07T22:33:33;12.50;;;8.55;;
56239;SDS011;42154;51.992;5.896;2022-12-07T22:35:59;12.88;;;7.25;;
56239;SDS011;42154;51.992;5.896;2022-12-07T22:38:25;17.25;;;8.07;;
56239;SDS011;42154;51.992;5.896;2022-12-07T22:40:52;9.05;;;7.15;;
56239;SDS011;42154;51.992;5.896;2022-12-07T22:43:18;11.00;;;6.35;;
56239;SDS011;42154;51.992;5.896;2022-12-07T22:45:52;11.05;;;7.25;;
56239;SDS011;42154;51.992;5.896;2022-12-07T22:48:27;11.07;;;7.03;;
56239;SDS011;42154;51.992;5.896;2022-12-07T22:50:53;10.43;;;7.47;;
56239;SDS011;42154;51.992;5.896;2022-12-07T22:53:22;11.93;;;7.45;;
56239;SDS011;42154;51.992;5.896;2022-12-07T22:55:49;13.38;;;8.13;;
56239;SDS011;42154;51.992;5.896;2022-12-07T22:58:15;12.70;;;8.90;;
56239;SDS011;42154;51.992;5.896;2022-12-07T23:00:51;12.98;;;8.95;;
56239;SDS011;42154;51.992;5.896;2022-12-07T23:03:17;9.70;;;8.70;;
56239;SDS011;42154;51.992;5.896;2022-12-07T23:05:46;11.02;;;8.88;;
56239;SDS011;42154;51.992;5.896;2022-12-07T23:08:13;9.35;;;7.72;;
56239;SDS011;42154;51.992;5.896;2022-12-07T23:10:43;9.40;;;8.38;;
56239;SDS011;42154;51.992;5.896;2022-12-07T23:13:11;10.00;;;8.63;;
56239;SDS011;42154;51.992;5.896;2022-12-07T23:15:56;10.77;;;9.65;;
56239;SDS011;42154;51.992;5.896;2022-12-07T23:18:33;12.40;;;9.57;;
56239;SDS011;42154;51.992;5.896;2022-12-07T23:20:58;13.13;;;10.20;;
56239;SDS011;42154;51.992;5.896;2022-12-07T23:23:24;13.93;;;9.93;;
56239;SDS011;42154;51.992;5.896;2022-12-07T23:25:50;14.68;;;10.68;;
56239;SDS011;42154;51.992;5.896;2022-12-07T23:28:17;11.68;;;9.05;;
56239;SDS011;42154;51.992;5.896;2022-12-07T23:30:43;11.10;;;9.90;;
56239;SDS011;42154;51.992;5.896;2022-12-07T23:33:08;13.18;;;9.55;;
56239;SDS011;42154;51.992;5.896;2022-12-07T23:35:34;12.90;;;10.82;;
56239;SDS011;42154;51.992;5.896;2022-12-07T23:38:00;11.73;;;9.98;;
56239;SDS011;42154;51.992;5.896;2022-12-07T23:40:25;10.95;;;9.27;;
56239;SDS011;42154;51.992;5.896;2022-12-07T23:42:51;13.80;;;9.73;;
56239;SDS011;42154;51.992;5.896;2022-12-07T23:45:17;11.10;;;9.52;;
56239;SDS011;42154;51.992;5.896;2022-12-07T23:47:42;11.93;;;9.45;;
56239;SDS011;42154;51.992;5.896;2022-12-07T23:50:08;10.57;;;9.50;;
56239;SDS011;42154;51.992;5.896;2022-12-07T23:52:34;11.98;;;9.00;;
56239;SDS011;42154;51.992;5.896;2022-12-07T23:55:00;10.90;;;9.43;;
56239;SDS011;42154;51.992;5.896;2022-12-07T23:57:25;12.23;;;9.18;;
56239;SDS011;42154;51.992;5.896;2022-12-07T23:59:51;12.07;;;9.73;;
